createdAt,value
2023-03-26T00:01:36.832Z,99875.09
2023-03-26T00:04:39.305Z,99869.19
2023-03-26T00:07:42.465Z,99865.94
2023-03-26T00:10:44.786Z,99874.63
2023-03-26T00:13:47.736Z,99876.19
2023-03-26T00:16:50.217Z,99873.16
2023-03-26T00:19:53.671Z,99872.69
2023-03-26T00:22:56.431Z,99874.16
2023-03-26T00:25:58.938Z,99891.78
2023-03-26T00:29:03.383Z,99878.97
2023-03-26T00:32:06.239Z,99875.13
2023-03-26T00:35:09.005Z,99873.69
2023-03-26T00:38:11.294Z,99875.59
2023-03-26T00:41:23.153Z,99875.59
2023-03-26T00:44:26.066Z,99874.19
2023-03-26T00:47:29.389Z,99848.34
2023-03-26T00:50:31.675Z,99858.97
2023-03-26T00:53:33.934Z,99849.56
2023-03-26T00:56:37.049Z,99847.63
2023-03-26T00:59:39.610Z,99847.03
2023-03-26T01:02:43.573Z,99845.22
2023-03-26T01:05:52.990Z,99843.28
2023-03-26T01:09:00.137Z,99834.00
2023-03-26T01:12:05.221Z,99832.53
2023-03-26T01:15:08.362Z,99840.84
2023-03-26T01:18:14.147Z,99843.66
2023-03-26T01:21:22.802Z,99839.38
2023-03-26T01:24:25.235Z,99836.00
2023-03-26T01:27:46.768Z,99830.22
2023-03-26T01:31:01.462Z,99835.81
2023-03-26T01:34:16.198Z,99833.72
2023-03-26T01:37:46.881Z,99836.28
2023-03-26T01:41:10.835Z,99836.75
2023-03-26T01:44:28.543Z,99853.53
2023-03-26T01:47:31.440Z,99839.19
2023-03-26T01:50:33.801Z,99841.47
2023-03-26T01:53:39.549Z,99835.06
2023-03-26T01:56:57.080Z,99842.06
2023-03-26T02:00:27.514Z,99836.53
2023-03-26T02:03:37.599Z,99845.22
2023-03-26T02:06:45.986Z,99847.75
2023-03-26T02:09:52.713Z,99855.47
2023-03-26T02:12:55.470Z,99855.34
2023-03-26T02:16:02.269Z,99856.19
2023-03-26T02:19:04.671Z,99860.66
2023-03-26T02:22:11.014Z,99862.84
2023-03-26T02:25:19.167Z,99863.53
2023-03-26T02:28:22.588Z,99862.13
2023-03-26T02:31:30.327Z,99861.63
2023-03-26T02:34:32.713Z,99864.03
2023-03-26T02:37:35.016Z,99849.31
2023-03-26T02:40:45.391Z,99851.00
2023-03-26T02:43:47.737Z,99848.13
2023-03-26T02:46:52.872Z,99835.81
2023-03-26T02:50:16.420Z,99839.66
2023-03-26T02:53:43.753Z,99838.22
2023-03-26T02:57:04.045Z,99830.00
2023-03-26T03:00:26.624Z,99838.88
2023-03-26T03:03:37.985Z,99843.94
2023-03-26T03:07:02.508Z,99851.63
2023-03-26T03:10:08.720Z,99840.66
2023-03-26T03:13:30.880Z,99840.84
2023-03-26T03:16:33.484Z,99841.06
2023-03-26T03:19:41.844Z,99847.81
2023-03-26T03:22:44.487Z,99850.69
2023-03-26T03:25:47.209Z,99854.88
2023-03-26T03:28:49.933Z,99851.94
2023-03-26T03:31:52.839Z,99850.38
2023-03-26T03:35:19.201Z,99855.56
2023-03-26T03:38:25.304Z,99854.09
2023-03-26T03:41:29.706Z,99838.44
2023-03-26T03:44:32.173Z,99858.44
2023-03-26T03:47:35.383Z,99862.53
2023-03-26T03:50:38.301Z,99867.41
2023-03-26T03:54:01.956Z,99874.19
2023-03-26T03:57:36.609Z,99870.78
2023-03-26T04:00:44.900Z,99874.41
2023-03-26T04:04:05.696Z,99887.13
2023-03-26T04:07:22.721Z,99887.81
2023-03-26T04:10:47.795Z,99880.66
2023-03-26T04:14:16.118Z,99876.03
2023-03-26T04:17:32.387Z,99882.09
2023-03-26T04:20:35.599Z,99880.13
2023-03-26T04:23:38.928Z,99880.13
2023-03-26T04:26:51.663Z,99875.50
2023-03-26T04:29:59.924Z,99867.78
2023-03-26T04:33:04.274Z,99875.19
2023-03-26T04:36:10.302Z,99880.09
2023-03-26T04:39:13.322Z,99874.88
2023-03-26T04:42:41.760Z,99873.00
2023-03-26T04:45:54.605Z,99881.47
2023-03-26T04:49:00.679Z,99872.16
2023-03-26T04:52:03.021Z,99873.41
2023-03-26T04:55:42.280Z,99874.88
2023-03-26T04:58:56.978Z,99880.72
2023-03-26T05:02:02.104Z,99884.88
2023-03-26T05:05:09.252Z,99877.97
2023-03-26T05:08:12.004Z,99873.63
2023-03-26T05:11:14.366Z,99860.44
2023-03-26T05:14:16.939Z,99860.78
2023-03-26T05:17:21.435Z,99869.06
2023-03-26T05:20:26.444Z,99869.97
2023-03-26T05:23:28.686Z,99867.66
2023-03-26T05:26:51.964Z,99862.44
2023-03-26T05:30:02.229Z,99859.22
2023-03-26T05:33:06.734Z,99864.16
2023-03-26T05:36:19.552Z,99870.94
2023-03-26T05:39:26.975Z,99866.75
2023-03-26T05:42:41.333Z,99869.34
2023-03-26T05:46:07.757Z,99861.31
2023-03-26T05:49:10.306Z,99866.97
2023-03-26T05:52:15.277Z,99851.16
2023-03-26T05:55:40.736Z,99852.19
2023-03-26T05:59:01.530Z,99857.34
2023-03-26T06:02:23.754Z,99856.19
2023-03-26T06:05:44.435Z,99856.88
2023-03-26T06:09:06.794Z,99856.56
2023-03-26T06:12:10.364Z,99860.13
2023-03-26T06:15:14.129Z,99860.41
2023-03-26T06:18:23.110Z,99854.34
2023-03-26T06:21:42.490Z,99848.44
2023-03-26T06:24:53.765Z,99848.84
2023-03-26T06:28:14.533Z,99854.69
2023-03-26T06:31:51.710Z,99860.16
2023-03-26T06:34:57.333Z,99858.66
2023-03-26T06:37:59.852Z,99863.63
2023-03-26T06:41:06.837Z,99853.75
2023-03-26T06:44:29.314Z,99844.25
2023-03-26T06:47:51.877Z,99820.25
2023-03-26T06:51:13.037Z,99814.50
2023-03-26T06:54:33.675Z,99816.25
2023-03-26T06:57:54.161Z,99814.03
2023-03-26T07:01:15.545Z,99824.16
2023-03-26T07:04:36.660Z,99828.47
2023-03-26T07:07:57.648Z,99829.59
2023-03-26T07:11:11.901Z,99833.69
2023-03-26T07:14:46.433Z,99824.41
2023-03-26T07:18:07.180Z,99829.00
2023-03-26T07:21:12.412Z,99845.84
2023-03-26T07:24:15.505Z,99838.75
2023-03-26T07:27:39.341Z,99837.13
2023-03-26T07:30:53.662Z,99847.69
2023-03-26T07:34:54.619Z,99855.50
2023-03-26T07:38:22.994Z,99875.13
2023-03-26T07:42:14.070Z,99857.69
2023-03-26T07:45:54.711Z,99852.16
2023-03-26T07:49:01.831Z,99860.53
2023-03-26T07:52:23.106Z,99857.22
2023-03-26T07:56:10.235Z,99864.00
2023-03-26T07:59:47.308Z,99865.00
2023-03-26T08:03:16.880Z,99856.47
2023-03-26T08:06:39.569Z,99865.88
2023-03-26T08:10:15.021Z,99869.75
2023-03-26T08:14:18.942Z,99859.91
2023-03-26T08:17:33.154Z,99861.44
2023-03-26T08:20:54.353Z,99852.81
2023-03-26T08:24:13.678Z,99862.94
2023-03-26T08:27:34.582Z,99856.13
2023-03-26T08:30:37.283Z,99864.41
2023-03-26T08:33:41.250Z,99862.44
2023-03-26T08:36:44.576Z,99855.69
2023-03-26T08:39:46.850Z,99850.28
2023-03-26T08:42:55.573Z,99849.34
2023-03-26T08:46:31.374Z,99853.09
2023-03-26T08:49:39.209Z,99849.88
2023-03-26T08:52:59.825Z,99843.16
2023-03-26T08:56:44.341Z,99836.22
2023-03-26T09:00:22.033Z,99823.13
2023-03-26T09:03:45.392Z,99817.22
2023-03-26T09:06:58.135Z,99821.59
2023-03-26T09:10:31.383Z,99825.47
2023-03-26T09:13:42.252Z,99816.78
2023-03-26T09:16:56.585Z,99818.94
2023-03-26T09:20:13.477Z,99807.38
2023-03-26T09:23:49.714Z,99801.13
2023-03-26T09:26:55.089Z,99796.91
2023-03-26T09:30:19.276Z,99797.22
2023-03-26T09:33:33.848Z,99798.91
2023-03-26T09:37:14.720Z,99790.66
2023-03-26T09:40:18.942Z,99783.78
2023-03-26T09:43:48.858Z,99782.31
2023-03-26T09:47:12.910Z,99776.47
2023-03-26T09:50:34.103Z,99767.84
2023-03-26T09:54:01.925Z,99765.03
2023-03-26T09:57:13.578Z,99758.09
2023-03-26T10:00:21.669Z,99746.00
2023-03-26T10:03:38.160Z,99743.53
2023-03-26T10:07:17.595Z,99738.66
2023-03-26T10:10:50.263Z,99728.63
2023-03-26T10:14:05.655Z,99739.41
2023-03-26T10:17:49.323Z,99736.19
2023-03-26T10:21:08.351Z,99743.38
2023-03-26T10:24:36.518Z,99757.72
2023-03-26T10:28:03.366Z,99777.38
2023-03-26T10:31:36.243Z,99815.50
2023-03-26T10:34:46.909Z,99783.72
2023-03-26T10:38:13.545Z,99774.81
2023-03-26T10:41:53.890Z,99764.56
2023-03-26T10:45:14.752Z,99742.41
2023-03-26T10:48:45.352Z,99735.69
2023-03-26T10:51:54.930Z,99719.16
2023-03-26T10:55:08.628Z,99711.81
2023-03-26T10:58:22.074Z,99708.44
2023-03-26T11:01:31.520Z,99707.50
2023-03-26T11:04:48.553Z,99702.16
2023-03-26T11:07:56.815Z,99687.78
2023-03-26T11:11:08.910Z,99681.09
2023-03-26T11:14:33.852Z,99675.50
2023-03-26T11:17:43.391Z,99659.25
2023-03-26T11:20:53.677Z,99649.88
2023-03-26T11:24:25.972Z,99650.53
2023-03-26T11:27:44.470Z,99643.41
2023-03-26T11:30:56.465Z,99635.06
2023-03-26T11:34:05.782Z,99639.41
2023-03-26T11:38:02.368Z,99627.63
2023-03-26T11:41:11.445Z,99617.31
2023-03-26T11:44:26.955Z,99610.34
2023-03-26T11:47:33.971Z,99607.31
2023-03-26T11:50:42.053Z,99604.69
2023-03-26T11:53:46.877Z,99594.13
2023-03-26T11:57:19.837Z,99584.88
2023-03-26T12:00:27.528Z,99576.84
2023-03-26T12:03:30.459Z,99570.94
2023-03-26T12:06:33.007Z,99554.38
2023-03-26T12:09:35.370Z,99547.84
2023-03-26T12:12:41.391Z,99546.38
2023-03-26T12:15:44.285Z,99532.34
2023-03-26T12:19:08.244Z,99534.09
2023-03-26T12:22:37.313Z,99523.06
2023-03-26T12:25:40.183Z,99516.38
2023-03-26T12:28:48.240Z,99505.00
2023-03-26T12:31:57.391Z,99504.69
2023-03-26T12:35:06.096Z,99497.00
2023-03-26T12:38:17.341Z,99476.19
2023-03-26T12:43:51.643Z,99471.53
2023-03-26T12:44:59.253Z,99465.66
2023-03-26T12:48:05.048Z,99461.13
2023-03-26T12:51:38.209Z,99460.75
2023-03-26T12:55:11.830Z,99456.72
2023-03-26T12:58:17.655Z,99461.06
2023-03-26T13:01:54.586Z,99455.22
2023-03-26T13:05:05.676Z,99446.28
2023-03-26T13:09:05.060Z,99444.59
2023-03-26T13:12:30.954Z,99431.59
2023-03-26T13:15:37.532Z,99418.38
2023-03-26T13:18:58.927Z,99421.09
2023-03-26T13:22:36.886Z,99399.81
2023-03-26T13:25:53.313Z,99392.13
2023-03-26T13:29:01.490Z,99410.81
2023-03-26T13:32:22.167Z,99390.56
2023-03-26T13:35:33.910Z,99387.59
2023-03-26T13:39:04.962Z,99376.06
2023-03-26T13:42:39.799Z,99381.75
2023-03-26T13:46:05.425Z,99375.75
2023-03-26T13:49:15.639Z,99368.72
2023-03-26T13:52:26.482Z,99364.34
2023-03-26T13:55:31.944Z,99361.84
2023-03-26T13:58:48.820Z,99354.81
2023-03-26T14:01:57.439Z,99346.59
2023-03-26T14:05:09.468Z,99338.91
2023-03-26T14:08:38.392Z,99329.88
2023-03-26T14:11:57.891Z,99317.50
2023-03-26T14:15:14.043Z,99314.81
2023-03-26T14:18:33.823Z,99320.19
2023-03-26T14:22:07.067Z,99321.81
2023-03-26T14:25:40.029Z,99313.44
2023-03-26T14:29:07.630Z,99314.81
2023-03-26T14:32:29.685Z,99314.16
2023-03-26T14:36:04.361Z,99304.78
2023-03-26T14:39:30.597Z,99306.28
2023-03-26T14:42:43.325Z,99298.44
2023-03-26T14:46:14.235Z,99284.88
2023-03-26T14:49:54.625Z,99290.75
2023-03-26T14:53:01.145Z,99289.72
2023-03-26T14:56:15.734Z,99287.88
2023-03-26T14:59:52.034Z,99277.34
2023-03-26T15:03:09.244Z,99268.97
2023-03-26T15:06:33.215Z,99252.59
2023-03-26T15:10:09.254Z,99252.25
2023-03-26T15:13:40.743Z,99235.53
2023-03-26T15:17:03.323Z,99242.25
2023-03-26T15:20:05.642Z,99240.06
2023-03-26T15:23:32.489Z,99236.72
2023-03-26T15:26:53.109Z,99226.84
2023-03-26T15:30:10.437Z,99222.50
2023-03-26T15:33:34.313Z,99225.50
2023-03-26T15:36:58.888Z,99221.16
2023-03-26T15:40:22.519Z,99217.81
2023-03-26T15:43:29.989Z,99216.16
2023-03-26T15:46:38.354Z,99209.63
2023-03-26T15:49:43.780Z,99218.97
2023-03-26T15:52:53.806Z,99208.44
2023-03-26T15:56:16.063Z,99209.13
2023-03-26T15:59:37.122Z,99201.03
2023-03-26T16:03:10.352Z,99186.53
2023-03-26T16:06:21.896Z,99183.53
2023-03-26T16:09:39.347Z,99186.00
2023-03-26T16:12:56.005Z,99175.00
2023-03-26T16:16:04.204Z,99179.66
2023-03-26T16:19:21.907Z,99163.94
2023-03-26T16:22:43.367Z,99155.94
2023-03-26T16:26:12.253Z,99145.88
2023-03-26T16:29:14.618Z,99148.19
2023-03-26T16:32:28.620Z,99146.88
2023-03-26T16:36:02.074Z,99141.66
2023-03-26T16:39:04.928Z,99142.97
2023-03-26T16:42:17.924Z,99141.13
2023-03-26T16:45:29.442Z,99143.16
2023-03-26T16:48:37.637Z,99141.44
2023-03-26T16:51:39.830Z,99152.47
2023-03-26T16:54:52.654Z,99157.81
2023-03-26T16:58:05.635Z,99150.19
2023-03-26T17:01:27.256Z,99150.25
2023-03-26T17:04:29.409Z,99149.34
2023-03-26T17:07:43.603Z,99148.06
2023-03-26T17:11:22.365Z,99150.75
2023-03-26T17:14:33.489Z,99137.38
2023-03-26T17:17:51.125Z,99141.91
2023-03-26T17:21:09.710Z,99153.44
2023-03-26T17:24:27.470Z,99145.63
2023-03-26T17:28:20.356Z,99150.84
2023-03-26T17:31:23.707Z,99150.25
2023-03-26T17:34:37.992Z,99151.56
2023-03-26T17:37:47.810Z,99146.69
2023-03-26T17:40:55.786Z,99142.03
2023-03-26T17:43:58.298Z,99147.59
2023-03-26T17:47:00.920Z,99146.75
2023-03-26T17:50:11.987Z,99142.28
2023-03-26T17:53:24.263Z,99149.66
2023-03-26T17:56:29.508Z,99144.69
2023-03-26T17:59:32.342Z,99142.03
2023-03-26T18:02:39.536Z,99140.19
2023-03-26T18:05:42.291Z,99140.66
2023-03-26T18:08:59.513Z,99144.34
2023-03-26T18:12:32.402Z,99141.22
2023-03-26T18:15:56.314Z,99140.22
2023-03-26T18:19:06.965Z,99137.69
2023-03-26T18:22:18.833Z,99137.94
2023-03-26T18:25:30.416Z,99138.19
2023-03-26T18:28:35.598Z,99135.84
2023-03-26T18:31:41.271Z,99139.00
2023-03-26T18:34:50.113Z,99130.00
2023-03-26T18:37:56.936Z,99129.56
2023-03-26T18:40:59.275Z,99123.09
2023-03-26T18:44:03.521Z,99117.75
2023-03-26T18:47:07.153Z,99107.81
2023-03-26T18:50:15.419Z,99100.78
2023-03-26T18:53:25.476Z,99098.34
2023-03-26T18:56:32.393Z,99093.69
2023-03-26T18:59:41.022Z,99083.16
2023-03-26T19:02:44.474Z,99076.16
2023-03-26T19:05:46.846Z,99078.88
2023-03-26T19:08:49.690Z,99069.69
2023-03-26T19:11:57.183Z,99061.53
2023-03-26T19:15:06.049Z,99066.88
2023-03-26T19:18:14.161Z,99073.63
2023-03-26T19:21:18.104Z,99066.25
2023-03-26T19:24:21.390Z,99073.00
2023-03-26T19:27:24.239Z,99060.56
2023-03-26T19:30:35.170Z,99058.09
2023-03-26T19:33:40.346Z,99050.25
2023-03-26T19:36:59.477Z,99039.31
2023-03-26T19:40:30.219Z,99031.50
2023-03-26T19:43:32.592Z,99024.41
2023-03-26T19:47:47.346Z,99018.28
2023-03-26T19:50:01.819Z,99014.31
2023-03-26T19:53:16.566Z,99005.94
2023-03-26T19:56:20.871Z,98999.97
2023-03-26T19:59:23.840Z,98984.59
2023-03-26T20:02:26.728Z,98984.91
2023-03-26T20:05:34.224Z,98980.94
2023-03-26T20:08:36.519Z,98973.53
2023-03-26T20:11:40.915Z,98963.53
2023-03-26T20:14:45.261Z,98955.69
2023-03-26T20:17:50.263Z,98949.88
2023-03-26T20:20:54.730Z,98940.03
2023-03-26T20:23:57.211Z,98940.72
2023-03-26T20:26:59.472Z,98922.91
2023-03-26T20:30:01.862Z,98924.09
2023-03-26T20:33:12.849Z,98922.28
2023-03-26T20:36:34.059Z,98923.97
2023-03-26T20:39:37.821Z,98912.97
2023-03-26T20:42:41.484Z,98913.31
2023-03-26T20:45:45.292Z,98907.50
2023-03-26T20:48:47.781Z,98907.50
2023-03-26T20:51:50.055Z,98908.13
2023-03-26T20:54:52.312Z,98901.81
2023-03-26T20:57:55.271Z,98899.59
2023-03-26T21:01:00.714Z,98899.44
2023-03-26T21:04:04.322Z,98890.13
2023-03-26T21:07:17.562Z,98891.31
2023-03-26T21:10:21.641Z,98883.66
2023-03-26T21:14:05.219Z,98885.97
2023-03-26T21:17:14.718Z,98886.94
2023-03-26T21:20:21.201Z,98886.19
2023-03-26T21:23:31.281Z,98894.28
2023-03-26T21:26:57.989Z,98904.59
2023-03-26T21:30:00.601Z,98912.50
2023-03-26T21:33:05.261Z,98916.03
2023-03-26T21:36:08.309Z,98918.16
2023-03-26T21:39:11.237Z,98923.38
2023-03-26T21:42:13.899Z,98925.84
2023-03-26T21:45:17.354Z,98935.53
2023-03-26T21:48:20.207Z,98930.19
2023-03-26T21:51:22.703Z,98934.53
2023-03-26T21:54:27.987Z,98928.88
2023-03-26T21:57:44.835Z,98928.53
2023-03-26T22:01:09.588Z,98925.88
2023-03-26T22:04:18.401Z,98920.84
2023-03-26T22:07:30.696Z,98916.84
2023-03-26T22:10:32.976Z,98916.31
2023-03-26T22:13:38.815Z,98918.28
2023-03-26T22:16:41.674Z,98915.78
2023-03-26T22:19:44.022Z,98911.75
2023-03-26T22:22:48.754Z,98914.41
2023-03-26T22:25:51.533Z,98916.88
2023-03-26T22:28:53.763Z,98923.09
2023-03-26T22:31:56.052Z,98912.91
2023-03-26T22:34:58.356Z,98907.84
2023-03-26T22:38:01.279Z,98901.03
2023-03-26T22:41:03.815Z,98901.88
2023-03-26T22:44:19.219Z,98893.91
2023-03-26T22:47:22.752Z,98881.41
2023-03-26T22:50:25.925Z,98881.94
2023-03-26T22:53:28.718Z,98880.28
2023-03-26T22:56:30.966Z,98872.75
2023-03-26T22:59:33.207Z,98870.88
2023-03-26T23:02:35.794Z,98863.34
2023-03-26T23:05:38.090Z,98861.53
2023-03-26T23:08:40.918Z,98861.00
2023-03-26T23:11:43.204Z,98864.97
2023-03-26T23:14:45.487Z,98857.09
2023-03-26T23:17:54.415Z,98861.44
2023-03-26T23:20:57.926Z,98853.06
2023-03-26T23:24:00.472Z,98855.28
2023-03-26T23:27:03.534Z,98852.13
2023-03-26T23:30:05.950Z,98847.34
2023-03-26T23:33:09.039Z,98847.72
2023-03-26T23:36:12.573Z,98841.34
2023-03-26T23:39:14.785Z,98830.53
2023-03-26T23:42:17.362Z,98822.94
2023-03-26T23:45:31.131Z,98816.78
2023-03-26T23:48:33.391Z,98801.25
2023-03-26T23:51:36.677Z,98795.75
2023-03-26T23:54:39.062Z,98791.97
2023-03-26T23:57:43.460Z,98787.19
